Time;durP1;ratioP1;P1;durP2;ratioP2;P2;SDS_P1;SDS_P2;PMS_P1;PMS_P2;Temp;Humidity;BMP_temperature;BMP_pressure;BME280_temperature;BME280_humidity;BME280_pressure;Samples;Min_cycle;Max_cycle;Signal;HPM_P1;HPM_P2
2023/03/07 00:01:01;;;;;;;12.27;10.53;;;;;;;0.35;100.00;94640.41;4988968;28;24511;-72
2023/03/07 00:03:28;;;;;;;13.85;11.15;;;;;;;0.28;100.00;94646.66;4991230;28;24455;-73
2023/03/07 00:06:02;;;;;;;13.35;10.68;;;;;;;0.18;100.00;94650.47;4991291;28;24447;-73
2023/03/07 00:08:28;;;;;;;15.10;10.82;;;;;;;0.26;100.00;94642.50;4990561;28;24452;-73
2023/03/07 00:10:55;;;;;;;11.80;10.07;;;;;;;0.28;100.00;94651.75;4991139;28;24445;-73
2023/03/07 00:13:21;;;;;;;11.88;10.55;;;;;;;0.32;100.00;94655.00;4990817;28;24452;-73
2023/03/07 00:15:48;;;;;;;12.52;11.32;;;;;;;0.30;100.00;94654.22;4989296;28;24440;-73
2023/03/07 00:18:15;;;;;;;13.75;11.43;;;;;;;0.36;100.00;94656.53;4986588;28;24856;-73
2023/03/07 00:20:41;;;;;;;13.55;10.90;;;;;;;0.35;100.00;94649.78;4988363;28;24564;-74
2023/03/07 00:23:09;;;;;;;25.58;18.13;;;;;;;0.24;100.00;94650.22;4990734;28;24463;-73
2023/03/07 00:25:36;;;;;;;17.77;14.98;;;;;;;0.30;100.00;94665.25;4987028;28;24440;-73
2023/03/07 00:28:02;;;;;;;18.05;14.38;;;;;;;0.34;100.00;94654.06;4986460;28;24440;-73
2023/03/07 00:30:29;;;;;;;12.05;10.65;;;;;;;0.39;100.00;94648.78;4988335;28;25341;-73
2023/03/07 00:32:55;;;;;;;11.32;9.73;;;;;;;0.42;100.00;94641.00;4983651;28;24436;-73
2023/03/07 00:35:22;;;;;;;12.52;10.05;;;;;;;0.48;100.00;94643.28;4985538;28;24437;-73
2023/03/07 00:37:48;;;;;;;13.13;10.10;;;;;;;0.44;100.00;94636.66;4987546;28;24440;-73
2023/03/07 00:40:16;;;;;;;14.63;10.57;;;;;;;0.38;100.00;94642.03;4989340;28;24452;-73
2023/03/07 00:42:43;;;;;;;13.65;10.05;;;;;;;0.41;100.00;94629.16;4982741;28;24461;-73
2023/03/07 00:45:10;;;;;;;14.80;10.63;;;;;;;0.35;100.00;94624.31;4989073;28;24990;-73
2023/03/07 00:47:36;;;;;;;11.20;9.63;;;;;;;0.43;100.00;94623.09;4985988;28;24440;-73
2023/03/07 00:50:03;;;;;;;12.35;10.75;;;;;;;0.56;100.00;94620.88;4980261;28;24983;-73
2023/03/07 00:52:30;;;;;;;13.23;10.67;;;;;;;0.54;100.00;94626.94;4989957;28;24433;-73
2023/03/07 00:54:56;;;;;;;14.30;10.85;;;;;;;0.43;100.00;94614.63;4987665;28;24436;-73
2023/03/07 00:57:24;;;;;;;11.75;10.50;;;;;;;0.35;100.00;94622.59;4989585;28;24440;-74
2023/03/07 00:59:50;;;;;;;15.90;10.95;;;;;;;0.43;100.00;94620.56;4982075;28;24444;-73
2023/03/07 01:02:17;;;;;;;12.65;10.60;;;;;;;0.36;100.00;94601.31;4986344;28;24444;-73
2023/03/07 01:04:43;;;;;;;13.52;10.32;;;;;;;0.35;100.00;94609.88;4989796;28;24456;-73
2023/03/07 01:07:10;;;;;;;14.57;10.07;;;;;;;0.36;100.00;94610.69;4990407;28;24444;-73
2023/03/07 01:09:36;;;;;;;11.73;10.23;;;;;;;0.40;100.00;94612.22;4984750;28;24494;-73
2023/03/07 01:12:06;;;;;;;12.32;10.50;;;;;;;0.40;100.00;94604.56;4988727;28;24440;-73
2023/03/07 01:14:33;;;;;;;15.27;10.98;;;;;;;0.50;100.00;94603.31;4981036;28;24976;-73
2023/03/07 01:17:00;;;;;;;16.08;10.05;;;;;;;0.41;100.00;94593.50;4988476;28;24444;-73
2023/03/07 01:19:26;;;;;;;15.20;10.52;;;;;;;0.42;100.00;94597.69;4985366;28;24440;-73
2023/03/07 01:21:53;;;;;;;11.85;9.70;;;;;;;0.40;100.00;94591.84;4988231;28;25209;-73
2023/03/07 01:24:19;;;;;;;13.20;9.82;;;;;;;0.40;100.00;94592.66;4987707;28;24547;-73
2023/03/07 01:26:47;;;;;;;12.98;9.80;;;;;;;0.35;100.00;94589.50;4990087;28;25005;-73
2023/03/07 01:29:13;;;;;;;11.35;10.15;;;;;;;0.38;100.00;94588.53;4989310;28;24482;-73
2023/03/07 01:31:41;;;;;;;13.43;10.18;;;;;;;0.39;100.00;94592.72;4988474;28;24445;-73
2023/03/07 01:34:08;;;;;;;12.95;10.18;;;;;;;0.30;100.00;94591.41;4985412;28;24999;-73
2023/03/07 01:36:35;;;;;;;15.63;10.65;;;;;;;0.29;100.00;94594.81;4986926;28;24448;-73
2023/03/07 01:39:05;;;;;;;11.40;9.80;;;;;;;0.33;100.00;94591.25;4986429;28;24448;-73
2023/03/07 01:41:32;;;;;;;14.07;10.23;;;;;;;0.31;100.00;94587.13;4982303;28;25009;-73
2023/03/07 01:43:59;;;;;;;13.30;10.13;;;;;;;0.35;100.00;94588.66;4985667;28;24916;-73
2023/03/07 01:46:53;;;;;;;13.63;10.55;;;;;;;0.36;100.00;94591.13;4982593;28;24448;-74
2023/03/07 01:49:24;;;;;;;14.43;10.68;;;;;;;0.35;100.00;94591.22;4983929;28;24544;-73
2023/03/07 01:51:56;;;;;;;14.45;10.70;;;;;;;0.33;100.00;94586.16;4986708;28;25006;-73
2023/03/07 01:54:24;;;;;;;13.02;10.88;;;;;;;0.35;100.00;94581.84;4989846;28;24436;-74
2023/03/07 01:56:51;;;;;;;13.07;9.80;;;;;;;0.34;100.00;94585.28;4978676;28;24434;-73
2023/03/07 01:59:24;;;;;;;13.02;10.45;;;;;;;0.36;100.00;94575.03;4983795;28;24548;-73
2023/03/07 02:01:52;;;;;;;11.63;10.38;;;;;;;0.35;100.00;94576.75;4987048;28;24456;-73
2023/03/07 02:04:24;;;;;;;11.82;10.52;;;;;;;0.39;100.00;94578.28;4992482;28;25003;-73
2023/03/07 02:06:50;;;;;;;13.73;10.15;;;;;;;0.38;100.00;94570.72;4993683;28;24444;-73
2023/03/07 02:09:21;;;;;;;11.23;9.93;;;;;;;0.32;100.00;94573.50;4987403;28;24448;-73
2023/03/07 02:11:49;;;;;;;13.75;10.45;;;;;;;0.35;100.00;94576.75;4990898;28;24456;-73
2023/03/07 02:14:15;;;;;;;12.60;10.68;;;;;;;0.35;100.00;94566.56;4990834;28;24441;-73
2023/03/07 02:16:42;;;;;;;11.77;10.55;;;;;;;0.38;100.00;94569.00;4986941;28;24442;-73
2023/03/07 02:19:30;;;;;;;16.13;11.70;;;;;;;0.31;100.00;94559.94;4989763;28;24479;-73
2023/03/07 02:22:07;;;;;;;15.82;11.70;;;;;;;0.23;100.00;94560.28;4993013;28;24974;-74
2023/03/07 02:24:42;;;;;;;14.57;11.60;;;;;;;0.23;100.00;94556.91;4989902;28;24452;-74
2023/03/07 02:27:10;;;;;;;16.83;11.20;;;;;;;0.15;100.00;94554.69;4992424;28;24440;-74
2023/03/07 02:29:38;;;;;;;14.15;11.50;;;;;;;0.20;100.00;94551.94;4992134;28;24440;-74
2023/03/07 02:32:05;;;;;;;13.98;11.43;;;;;;;0.22;100.00;94548.44;4991660;28;24452;-74
2023/03/07 02:34:32;;;;;;;11.57;10.38;;;;;;;0.21;100.00;94540.84;4988319;28;24832;-74
2023/03/07 02:37:02;;;;;;;13.23;10.77;;;;;;;0.18;100.00;94544.34;4990657;28;24433;-74
2023/03/07 02:39:29;;;;;;;12.43;11.20;;;;;;;0.14;100.00;94547.09;4991087;28;24437;-73
2023/03/07 02:41:56;;;;;;;16.13;11.32;;;;;;;0.24;100.00;94539.00;4990716;28;25193;-73
2023/03/07 02:44:24;;;;;;;13.52;11.27;;;;;;;0.26;100.00;94531.31;4985467;28;24453;-74
2023/03/07 02:46:50;;;;;;;15.40;11.00;;;;;;;0.26;100.00;94530.47;4987233;28;24835;-73
2023/03/07 02:49:17;;;;;;;16.15;11.27;;;;;;;0.32;100.00;94536.13;4989129;28;24448;-74
2023/03/07 02:51:44;;;;;;;13.85;10.65;;;;;;;0.34;100.00;94524.16;4989662;28;24445;-74
2023/03/07 02:54:10;;;;;;;18.58;11.35;;;;;;;0.35;100.00;94525.00;4988069;28;24429;-74
2023/03/07 02:56:37;;;;;;;12.88;10.13;;;;;;;0.36;100.00;94522.38;4989581;28;24439;-73
2023/03/07 02:59:04;;;;;;;12.77;10.65;;;;;;;0.44;100.00;94527.94;4987024;28;25031;-73
2023/03/07 03:01:32;;;;;;;11.95;10.68;;;;;;;0.50;100.00;94528.59;4992011;28;25006;-74
2023/03/07 03:03:58;;;;;;;15.13;10.43;;;;;;;0.43;100.00;94518.66;4992073;28;24457;-73
2023/03/07 03:06:25;;;;;;;14.25;10.50;;;;;;;0.40;100.00;94520.50;4989731;28;24433;-73
2023/03/07 03:08:51;;;;;;;14.15;11.32;;;;;;;0.32;100.00;94522.56;4988203;28;24448;-73
2023/03/07 03:11:18;;;;;;;13.73;11.25;;;;;;;0.31;100.00;94523.47;4992273;28;24800;-73
2023/03/07 03:13:44;;;;;;;12.68;10.85;;;;;;;0.29;100.00;94517.59;4987749;28;24795;-73
2023/03/07 03:16:11;;;;;;;12.57;11.27;;;;;;;0.36;100.00;94519.00;4986328;28;24460;-73
2023/03/07 03:18:38;;;;;;;12.27;10.98;;;;;;;0.42;100.00;94522.13;4989626;28;24464;-73
2023/03/07 03:21:09;;;;;;;11.32;10.20;;;;;;;0.45;100.00;94511.81;4991934;28;24448;-73
2023/03/07 03:23:36;;;;;;;14.35;11.55;;;;;;;0.46;100.00;94526.19;4991514;28;25017;-74
2023/03/07 03:26:06;;;;;;;11.90;10.25;;;;;;;0.66;100.00;94516.84;4990248;28;24437;-74
2023/03/07 03:28:33;;;;;;;15.98;11.30;;;;;;;0.64;100.00;94513.53;4989945;28;24483;-74
2023/03/07 03:31:01;;;;;;;13.43;11.40;;;;;;;0.84;100.00;94507.53;4986255;28;25002;-73
2023/03/07 03:33:29;;;;;;;16.15;11.32;;;;;;;1.04;100.00;94502.38;4987482;28;24800;-73
2023/03/07 03:35:57;;;;;;;13.63;11.38;;;;;;;0.64;100.00;94516.91;4988668;28;24516;-74
2023/03/07 03:38:23;;;;;;;13.52;11.63;;;;;;;0.60;100.00;94512.84;4991325;28;24468;-73
2023/03/07 03:40:50;;;;;;;15.18;11.50;;;;;;;0.69;100.00;94514.97;4989857;28;24441;-73
2023/03/07 03:43:16;;;;;;;14.13;10.75;;;;;;;0.72;100.00;94511.47;4989633;28;24440;-73
2023/03/07 03:45:43;;;;;;;12.68;10.70;;;;;;;0.62;100.00;94518.69;4988454;28;24823;-73
2023/03/07 03:48:09;;;;;;;13.48;10.82;;;;;;;0.61;100.00;94513.66;4987185;28;25094;-73
2023/03/07 03:50:36;;;;;;;12.77;11.27;;;;;;;0.70;100.00;94498.81;4989061;28;24460;-73
2023/03/07 03:53:04;;;;;;;11.98;10.43;;;;;;;0.76;100.00;94497.69;4980867;28;24545;-73
2023/03/07 03:55:31;;;;;;;23.23;12.40;;;;;;;0.71;100.00;94502.19;4988236;28;24436;-73
2023/03/07 03:57:58;;;;;;;14.77;11.13;;;;;;;0.65;100.00;94500.72;4991285;28;24990;-73
2023/03/07 04:00:25;;;;;;;13.90;11.40;;;;;;;0.58;100.00;94501.88;4983481;28;24444;-74
2023/03/07 04:02:51;;;;;;;12.93;11.10;;;;;;;0.57;100.00;94496.88;4989403;28;24437;-73
2023/03/07 04:05:18;;;;;;;12.57;11.25;;;;;;;0.50;100.00;94511.59;4985642;28;24460;-73
2023/03/07 04:07:44;;;;;;;13.32;11.50;;;;;;;0.56;100.00;94503.69;4991219;28;24440;-74
2023/03/07 04:10:14;;;;;;;13.20;11.38;;;;;;;0.64;100.00;94495.69;4989798;28;24437;-74
2023/03/07 04:12:41;;;;;;;15.80;11.53;;;;;;;0.58;100.00;94506.16;4989935;28;24440;-73
2023/03/07 04:15:08;;;;;;;14.80;10.85;;;;;;;0.59;100.00;94500.97;4986096;28;24967;-73
2023/03/07 04:17:35;;;;;;;14.20;11.30;;;;;;;0.66;100.00;94494.72;4990934;28;24449;-73
2023/03/07 04:20:03;;;;;;;12.60;10.90;;;;;;;0.66;100.00;94493.91;4984092;28;24877;-73
2023/03/07 04:22:30;;;;;;;14.40;11.15;;;;;;;0.64;100.00;94488.88;4990778;28;24438;-73
2023/03/07 04:24:56;;;;;;;13.25;10.68;;;;;;;0.72;100.00;94478.34;4989890;28;24453;-73
2023/03/07 04:27:24;;;;;;;13.15;10.70;;;;;;;0.70;100.00;94482.66;4991192;28;24443;-74
2023/03/07 04:29:50;;;;;;;16.45;11.05;;;;;;;0.72;100.00;94486.81;4986352;28;24441;-73
2023/03/07 04:32:17;;;;;;;15.13;11.00;;;;;;;0.77;100.00;94475.59;4988721;28;24440;-73
2023/03/07 04:34:43;;;;;;;13.70;11.17;;;;;;;0.73;100.00;94480.00;4988850;28;24432;-73
2023/03/07 04:37:10;;;;;;;13.93;10.43;;;;;;;0.67;100.00;94478.56;4988530;28;24523;-73
2023/03/07 04:39:36;;;;;;;14.90;10.50;;;;;;;0.67;100.00;94483.66;4984867;28;24449;-73
2023/03/07 04:42:02;;;;;;;11.52;9.68;;;;;;;0.69;100.00;94471.66;4986621;28;24437;-74
2023/03/07 04:44:30;;;;;;;12.80;10.65;;;;;;;0.68;100.00;94474.28;4989684;28;24464;-73
2023/03/07 04:46:57;;;;;;;12.10;10.45;;;;;;;0.75;100.00;94478.22;4983302;28;24445;-73
2023/03/07 04:49:23;;;;;;;14.13;10.65;;;;;;;0.79;100.00;94476.34;4982299;28;24441;-73
2023/03/07 04:51:50;;;;;;;13.13;10.48;;;;;;;0.81;100.00;94483.00;4980936;28;24434;-73
2023/03/07 04:54:16;;;;;;;13.15;10.68;;;;;;;0.80;100.00;94478.00;4985709;28;24440;-73
2023/03/07 04:56:43;;;;;;;12.40;11.10;;;;;;;0.87;100.00;94472.53;4989751;28;24510;-73
2023/03/07 04:59:09;;;;;;;17.63;11.45;;;;;;;0.71;100.00;94471.59;4985473;28;24495;-73
2023/03/07 05:01:37;;;;;;;11.60;10.40;;;;;;;0.75;100.00;94480.75;4986632;28;24451;-73
2023/03/07 05:04:04;;;;;;;14.02;11.27;;;;;;;0.76;100.00;94479.03;4990231;28;24439;-73
2023/03/07 05:06:30;;;;;;;14.15;10.82;;;;;;;0.78;100.00;94465.34;4989834;28;24536;-74
2023/03/07 05:08:57;;;;;;;12.90;10.45;;;;;;;0.85;100.00;94469.22;4988643;28;24535;-72
2023/03/07 05:11:23;;;;;;;14.48;11.32;;;;;;;0.80;100.00;94471.16;4983328;28;24444;-72
2023/03/07 05:13:49;;;;;;;13.55;11.48;;;;;;;0.79;100.00;94469.53;4989217;28;24439;-72
2023/03/07 05:16:16;;;;;;;15.90;11.98;;;;;;;0.79;100.00;94461.06;4988120;28;24440;-73
2023/03/07 05:18:44;;;;;;;13.00;11.10;;;;;;;0.86;100.00;94457.34;4982924;28;24799;-74
2023/03/07 05:21:10;;;;;;;18.20;11.52;;;;;;;0.69;100.00;94453.81;4983016;28;24444;-74
2023/03/07 05:23:37;;;;;;;11.30;10.10;;;;;;;0.66;100.00;94456.50;4979396;28;24438;-71
2023/03/07 05:26:03;;;;;;;14.57;10.68;;;;;;;0.62;100.00;94452.44;4988772;28;24444;-71
2023/03/07 05:28:30;;;;;;;15.27;11.75;;;;;;;0.55;100.00;94453.59;4989538;28;24441;-72
2023/03/07 05:30:56;;;;;;;13.73;10.80;;;;;;;0.57;100.00;94456.09;4988081;28;24465;-72
2023/03/07 05:33:23;;;;;;;14.57;10.55;;;;;;;0.53;100.00;94454.59;4989833;28;24432;-71
2023/03/07 05:35:51;;;;;;;13.30;10.85;;;;;;;0.41;100.00;94451.69;4987572;28;24437;-71
2023/03/07 05:38:17;;;;;;;17.13;11.73;;;;;;;0.50;100.00;94459.81;4992252;28;24444;-71
2023/03/07 05:40:44;;;;;;;16.55;11.70;;;;;;;0.47;100.00;94463.31;4986814;28;24448;-71
2023/03/07 05:43:11;;;;;;;15.80;10.67;;;;;;;0.45;100.00;94462.59;4993904;28;24443;-71
2023/03/07 05:45:37;;;;;;;15.27;10.90;;;;;;;0.44;100.00;94463.44;4995732;28;24532;-71
2023/03/07 05:48:04;;;;;;;14.55;11.75;;;;;;;0.41;100.00;94461.06;4995127;28;24440;-71
2023/03/07 05:50:30;;;;;;;20.10;11.68;;;;;;;0.47;100.00;94453.13;4996090;28;24437;-72
2023/03/07 05:52:58;;;;;;;16.08;11.75;;;;;;;0.42;100.00;94450.78;4996317;28;24816;-71
2023/03/07 05:55:25;;;;;;;13.17;10.97;;;;;;;0.41;100.00;94445.78;4993646;28;24444;-71
2023/03/07 05:57:51;;;;;;;12.63;11.20;;;;;;;0.40;100.00;94447.47;4988050;28;24536;-72
2023/03/07 06:00:19;;;;;;;13.15;11.35;;;;;;;0.43;100.00;94439.72;4995610;28;24436;-72
2023/03/07 06:02:46;;;;;;;14.23;11.10;;;;;;;0.48;100.00;94431.84;4995878;28;24445;-71
2023/03/07 06:05:13;;;;;;;16.02;11.98;;;;;;;0.42;100.00;94427.06;4984686;28;24454;-72
2023/03/07 06:07:39;;;;;;;12.25;10.98;;;;;;;0.41;100.00;94433.06;4995727;28;24468;-71
2023/03/07 06:10:08;;;;;;;13.50;11.65;;;;;;;0.39;100.00;94428.00;4991301;28;25003;-72
2023/03/07 06:12:35;;;;;;;17.85;13.77;;;;;;;0.40;100.00;94427.09;4996036;28;24436;-72
2023/03/07 06:15:02;;;;;;;15.05;12.55;;;;;;;0.44;100.00;94426.06;4993537;28;24436;-72
2023/03/07 06:17:28;;;;;;;14.32;12.77;;;;;;;0.47;100.00;94430.22;4987172;28;24976;-72
2023/03/07 06:19:55;;;;;;;16.30;12.13;;;;;;;0.50;100.00;94429.25;4995187;28;24452;-72
2023/03/07 06:22:21;;;;;;;23.83;14.75;;;;;;;0.53;100.00;94424.84;4991823;28;24804;-72
2023/03/07 06:24:48;;;;;;;17.85;12.25;;;;;;;0.48;100.00;94419.97;4995512;28;24489;-72
2023/03/07 06:27:16;;;;;;;14.07;12.32;;;;;;;0.55;100.00;94425.59;4985770;28;24441;-73
2023/03/07 06:29:42;;;;;;;15.13;12.70;;;;;;;0.60;100.00;94423.69;4981826;28;24433;-73
2023/03/07 06:32:09;;;;;;;19.80;13.10;;;;;;;0.56;100.00;94423.88;4992460;28;24433;-73
2023/03/07 06:34:37;;;;;;;17.52;13.00;;;;;;;0.66;100.00;94433.56;4995628;28;24436;-73
2023/03/07 06:37:03;;;;;;;20.08;15.20;;;;;;;0.65;100.00;94424.28;4995509;28;24526;-73
2023/03/07 06:39:30;;;;;;;22.58;14.60;;;;;;;0.67;100.00;94439.53;4995411;28;24441;-70
2023/03/07 06:41:56;;;;;;;20.48;15.88;;;;;;;0.62;100.00;94433.78;4990456;28;24441;-75
2023/03/07 06:44:24;;;;;;;21.27;16.13;;;;;;;0.61;100.00;94425.31;4994489;28;24441;-73
2023/03/07 06:46:50;;;;;;;19.00;13.13;;;;;;;0.75;100.00;94427.25;4990554;28;24440;-73
2023/03/07 06:49:17;;;;;;;14.18;11.70;;;;;;;0.80;100.00;94437.22;4991636;28;24444;-72
2023/03/07 06:51:43;;;;;;;16.23;11.85;;;;;;;0.87;100.00;94439.41;4986691;28;24445;-76
2023/03/07 06:54:10;;;;;;;13.30;11.13;;;;;;;0.87;100.00;94436.03;4992868;28;24439;-76
2023/03/07 06:56:36;;;;;;;11.88;10.68;;;;;;;0.89;100.00;94432.53;4992214;28;25048;-75
2023/03/07 06:59:03;;;;;;;14.05;11.32;;;;;;;0.88;100.00;94435.97;4988525;28;24448;-74
2023/03/07 07:01:31;;;;;;;16.35;11.10;;;;;;;0.90;100.00;94428.25;4992122;28;24437;-75
2023/03/07 07:03:57;;;;;;;15.88;11.70;;;;;;;0.96;100.00;94427.94;4984953;28;24448;-74
2023/03/07 07:06:24;;;;;;;13.77;11.57;;;;;;;0.99;100.00;94427.81;4984077;28;24457;-74
2023/03/07 07:08:54;;;;;;;15.38;11.90;;;;;;;1.06;100.00;94423.25;4981460;28;24438;-75
2023/03/07 07:11:21;;;;;;;15.23;11.13;;;;;;;1.16;100.00;94425.31;4985946;28;25014;-75
2023/03/07 07:13:47;;;;;;;14.43;11.30;;;;;;;1.20;100.00;94424.25;4990202;28;24448;-74
2023/03/07 07:16:14;;;;;;;11.93;10.70;;;;;;;1.18;100.00;94423.50;4992164;28;24440;-74
2023/03/07 07:18:42;;;;;;;14.80;10.05;;;;;;;1.36;100.00;94424.34;4980972;28;24441;-73
2023/03/07 07:21:08;;;;;;;12.13;10.03;;;;;;;1.34;100.00;94426.16;4988032;28;24499;-73
2023/03/07 07:23:35;;;;;;;16.10;11.05;;;;;;;1.37;100.00;94431.09;4989486;28;24436;-77
2023/03/07 07:26:02;;;;;;;12.70;10.30;;;;;;;1.40;100.00;94430.94;4988210;28;24449;-75
2023/03/07 07:28:28;;;;;;;12.57;10.02;;;;;;;1.50;100.00;94433.88;4990560;28;24444;-75
2023/03/07 07:30:55;;;;;;;16.17;10.38;;;;;;;1.49;100.00;94432.22;4982630;28;24436;-74
2023/03/07 07:33:21;;;;;;;14.50;9.95;;;;;;;1.55;100.00;94436.19;4991788;28;24987;-76
2023/03/07 07:35:49;;;;;;;12.65;9.63;;;;;;;1.71;100.00;94434.56;4989871;28;24803;-75
2023/03/07 07:38:16;;;;;;;12.80;9.68;;;;;;;1.64;100.00;94431.47;4985973;28;24444;-74
2023/03/07 07:40:43;;;;;;;12.25;9.48;;;;;;;1.70;100.00;94435.44;4989164;28;24440;-75
2023/03/07 07:43:14;;;;;;;12.90;9.30;;;;;;;1.87;100.00;94429.50;4991073;28;24566;-73
2023/03/07 07:45:40;;;;;;;12.63;9.00;;;;;;;1.89;100.00;94427.69;4989581;28;24970;-73
2023/03/07 07:48:07;;;;;;;13.82;9.50;;;;;;;1.91;100.00;94426.72;4990163;28;24444;-73
2023/03/07 07:50:33;;;;;;;14.80;10.60;;;;;;;1.99;100.00;94428.88;4988377;28;24441;-73
2023/03/07 07:53:01;;;;;;;11.27;9.93;;;;;;;2.03;100.00;94427.81;4980579;28;25002;-75
2023/03/07 07:55:28;;;;;;;13.25;9.07;;;;;;;2.04;100.00;94431.19;4987796;28;24460;-75
2023/03/07 07:57:54;;;;;;;14.85;10.57;;;;;;;2.15;100.00;94432.31;4988294;28;24491;-73
2023/03/07 08:00:21;;;;;;;11.68;10.05;;;;;;;2.44;100.00;94427.41;4987027;28;24440;-74
2023/03/07 08:02:49;;;;;;;12.07;9.63;;;;;;;2.59;100.00;94434.25;4988704;28;25011;-74
2023/03/07 08:05:16;;;;;;;16.40;10.20;;;;;;;2.57;100.00;94425.88;4989146;28;24862;-74
2023/03/07 08:07:43;;;;;;;13.63;10.45;;;;;;;2.77;100.00;94426.53;4988138;28;24437;-74
2023/03/07 08:10:14;;;;;;;15.65;11.20;;;;;;;2.84;100.00;94427.84;4986038;28;24512;-75
2023/03/07 08:12:41;;;;;;;13.98;9.80;;;;;;;2.84;100.00;94420.19;4991727;28;24528;-75
2023/03/07 08:15:08;;;;;;;11.07;9.77;;;;;;;2.71;100.00;94412.34;4988147;28;24440;-75
2023/03/07 08:17:35;;;;;;;11.27;9.18;;;;;;;2.66;100.00;94417.69;4991409;28;24437;-73
2023/03/07 08:20:07;;;;;;;9.48;8.35;;;;;;;2.47;100.00;94422.13;4989366;28;24437;-73
2023/03/07 08:22:33;;;;;;;11.63;8.63;;;;;;;2.43;100.00;94415.53;4991452;28;24827;-75
2023/03/07 08:25:00;;;;;;;10.27;8.27;;;;;;;2.35;100.00;94415.13;4988146;28;24444;-74
2023/03/07 08:27:28;;;;;;;10.43;7.93;;;;;;;2.32;100.00;94420.38;4985159;28;24433;-74
2023/03/07 08:29:55;;;;;;;14.65;8.23;;;;;;;2.19;100.00;94415.09;4985369;28;24448;-74
2023/03/07 08:32:21;;;;;;;16.50;8.63;;;;;;;2.11;100.00;94417.19;4989482;28;24998;-74
2023/03/07 08:34:48;;;;;;;10.20;7.80;;;;;;;2.04;100.00;94416.72;4984094;28;24440;-74
2023/03/07 08:37:14;;;;;;;13.73;8.10;;;;;;;2.08;100.00;94420.75;4991163;28;24459;-74
2023/03/07 08:39:41;;;;;;;8.93;8.02;;;;;;;2.05;100.00;94415.81;4980816;28;24441;-74
2023/03/07 08:42:07;;;;;;;12.15;8.40;;;;;;;2.02;100.00;94415.97;4976288;28;25018;-74
2023/03/07 08:44:35;;;;;;;13.18;8.20;;;;;;;2.05;100.00;94417.53;4983824;28;25034;-76
2023/03/07 08:47:01;;;;;;;11.70;8.15;;;;;;;1.98;100.00;94411.91;4983714;28;24995;-74
2023/03/07 08:49:28;;;;;;;10.63;8.27;;;;;;;2.10;100.00;94413.81;4981081;28;25003;-73
2023/03/07 08:51:54;;;;;;;9.85;7.93;;;;;;;2.15;100.00;94404.22;4987700;28;25745;-77
2023/03/07 08:54:21;;;;;;;9.60;7.57;;;;;;;2.25;100.00;94411.41;4999488;28;24460;-79
2023/03/07 08:56:47;;;;;;;15.98;9.30;;;;;;;2.30;100.00;94412.81;4991065;28;24429;-78
2023/03/07 08:59:14;;;;;;;13.35;9.00;;;;;;;2.35;100.00;94410.84;4992710;28;24445;-78
2023/03/07 09:01:42;;;;;;;10.40;7.43;;;;;;;2.37;100.00;94405.63;4984780;28;24444;-78
2023/03/07 09:04:08;;;;;;;11.25;10.02;;;;;;;2.35;100.00;94403.16;4986213;28;24434;-74
2023/03/07 09:06:34;;;;;;;13.27;8.90;;;;;;;2.36;100.00;94409.91;4979974;28;24453;-74
2023/03/07 09:09:01;;;;;;;9.27;7.65;;;;;;;2.38;99.31;94397.09;4989103;28;24804;-75
2023/03/07 09:11:28;;;;;;;9.40;7.35;;;;;;;2.33;99.64;94393.94;4990531;28;24996;-75
2023/03/07 09:13:55;;;;;;;9.05;7.35;;;;;;;2.34;100.00;94395.59;4984824;28;24478;-75
2023/03/07 09:16:21;;;;;;;10.68;7.55;;;;;;;2.41;96.45;94397.75;4985080;28;24437;-75
2023/03/07 09:18:49;;;;;;;9.32;6.70;;;;;;;2.33;96.95;94392.19;4987810;28;24440;-75
2023/03/07 09:21:16;;;;;;;7.03;6.22;;;;;;;2.27;92.67;94394.28;4983787;28;24456;-75
2023/03/07 09:23:42;;;;;;;10.48;7.18;;;;;;;2.32;94.10;94399.94;4989365;28;24429;-74
2023/03/07 09:26:10;;;;;;;10.30;6.22;;;;;;;2.33;95.01;94392.19;4989189;28;24520;-78
2023/03/07 09:28:36;;;;;;;7.95;7.22;;;;;;;2.31;94.95;94391.47;4990862;28;24499;-78
2023/03/07 09:31:06;;;;;;;9.25;6.68;;;;;;;2.36;94.81;94393.78;4982270;28;24987;-77
2023/03/07 09:33:33;;;;;;;7.50;6.68;;;;;;;2.27;94.44;94396.81;4987024;28;24434;-75
2023/03/07 09:36:04;;;;;;;7.13;6.20;;;;;;;2.25;94.49;94386.66;4989866;28;24436;-75
2023/03/07 09:38:30;;;;;;;19.65;7.00;;;;;;;2.23;95.91;94388.50;4981753;28;24444;-76
2023/03/07 09:41:05;;;;;;;6.57;5.97;;;;;;;2.21;94.81;94387.72;4983357;28;24434;-76
2023/03/07 09:43:42;;;;;;;8.05;6.18;;;;;;;2.32;94.15;94384.63;4987586;28;24982;-75
2023/03/07 09:46:18;;;;;;;8.77;5.97;;;;;;;2.27;93.91;94386.59;4983732;28;25122;-76
2023/03/07 09:49:00;;;;;;;10.38;6.45;;;;;;;2.23;94.71;94378.28;4985850;28;25021;-75
2023/03/07 09:51:36;;;;;;;9.10;6.57;;;;;;;2.23;94.09;94385.13;4988092;28;24441;-75
2023/03/07 09:54:06;;;;;;;10.32;6.07;;;;;;;2.34;94.23;94373.44;4984676;28;25021;-75
2023/03/07 09:56:38;;;;;;;10.23;7.10;;;;;;;2.27;95.45;94382.31;4986859;28;24433;-75
2023/03/07 09:59:11;;;;;;;8.82;6.82;;;;;;;2.16;94.61;94379.50;4988229;28;24819;-75
2023/03/07 10:01:40;;;;;;;7.43;6.72;;;;;;;2.18;95.46;94375.94;4988205;28;24428;-75
2023/03/07 10:04:15;;;;;;;9.32;6.97;;;;;;;2.15;96.05;94380.38;4983797;28;24852;-76
2023/03/07 10:06:46;;;;;;;11.90;8.30;;;;;;;2.16;96.42;94382.06;4987109;28;24448;-75
2023/03/07 10:09:17;;;;;;;17.52;10.27;;;;;;;2.15;95.87;94371.03;4988388;28;24437;-74
2023/03/07 10:12:18;;;;;;;14.05;8.68;;;;;;;2.23;94.86;94362.94;4989903;28;24437;-74
2023/03/07 10:15:03;;;;;;;9.63;6.27;;;;;;;2.19;91.78;94366.56;4985689;28;25095;-73
2023/03/07 10:17:46;;;;;;;9.80;6.88;;;;;;;2.25;92.76;94365.41;4983640;28;25013;-75
2023/03/07 10:20:22;;;;;;;10.70;7.63;;;;;;;2.27;90.95;94369.53;4989294;28;24452;-75
2023/03/07 10:22:59;;;;;;;9.80;6.97;;;;;;;2.35;91.03;94359.72;4988274;28;24452;-75
2023/03/07 10:25:28;;;;;;;13.45;8.07;;;;;;;2.34;88.31;94350.44;4990984;28;24440;-74
2023/03/07 10:28:01;;;;;;;9.35;6.88;;;;;;;2.17;87.83;94358.16;4985665;28;24437;-73
2023/03/07 10:30:31;;;;;;;7.85;7.05;;;;;;;2.19;87.79;94353.81;4993036;28;25002;-74
2023/03/07 10:33:00;;;;;;;10.25;7.00;;;;;;;2.14;87.55;94348.91;4991175;28;24440;-73
2023/03/07 10:35:40;;;;;;;10.93;7.13;;;;;;;2.17;88.57;94343.66;4992516;28;24536;-74
2023/03/07 10:38:19;;;;;;;12.45;7.65;;;;;;;2.26;87.35;94347.44;4990837;28;24998;-74
2023/03/07 10:40:50;;;;;;;12.63;7.38;;;;;;;2.21;87.41;94340.94;4991775;28;24804;-74
2023/03/07 10:43:23;;;;;;;8.63;7.05;;;;;;;2.27;87.58;94349.09;4992129;28;24448;-74
2023/03/07 10:45:53;;;;;;;11.40;7.78;;;;;;;2.26;87.14;94347.44;4991011;28;24477;-74
2023/03/07 10:48:22;;;;;;;9.52;7.60;;;;;;;2.28;84.91;94339.72;4987309;28;24449;-74
2023/03/07 10:50:55;;;;;;;11.27;7.10;;;;;;;2.25;85.82;94340.69;4988098;28;24479;-74
2023/03/07 10:53:26;;;;;;;10.40;7.35;;;;;;;2.22;86.02;94340.03;4991732;28;24444;-74
2023/03/07 10:56:07;;;;;;;7.97;7.05;;;;;;;2.20;86.59;94337.56;4990016;28;24444;-74
2023/03/07 10:58:34;;;;;;;11.35;7.43;;;;;;;2.15;85.37;94344.63;4987440;28;24444;-73
2023/03/07 11:01:16;;;;;;;12.50;7.85;;;;;;;2.20;84.71;94347.78;4984670;28;25069;-74
2023/03/07 11:03:46;;;;;;;10.18;7.45;;;;;;;2.22;86.36;94332.34;4988924;28;24437;-74
2023/03/07 11:06:28;;;;;;;13.13;8.02;;;;;;;2.33;85.64;94330.06;4986330;28;24812;-74
2023/03/07 11:08:57;;;;;;;11.77;7.13;;;;;;;2.35;83.33;94341.03;4989937;28;24873;-74
2023/03/07 11:11:25;;;;;;;18.02;12.27;;;;;;;2.35;84.60;94338.47;4991068;28;24559;-74
2023/03/07 11:14:05;;;;;;;13.00;8.77;;;;;;;2.17;82.62;94325.78;4989836;28;24464;-73
2023/03/07 11:16:32;;;;;;;10.68;7.00;;;;;;;2.22;83.62;94332.34;4992121;28;24984;-74
2023/03/07 11:18:58;;;;;;;8.05;6.70;;;;;;;2.16;82.75;94319.03;4986867;28;24452;-74
2023/03/07 11:21:30;;;;;;;6.90;6.22;;;;;;;2.06;81.62;94324.69;4989984;28;24437;-74
2023/03/07 11:24:03;;;;;;;7.47;6.30;;;;;;;2.17;82.89;94327.50;4990684;28;24456;-74
2023/03/07 11:26:38;;;;;;;9.33;6.47;;;;;;;2.30;82.30;94325.97;4988855;28;24820;-74